Time;durP1;ratioP1;P1;durP2;ratioP2;P2;SDS_P1;SDS_P2;PMS_P1;PMS_P2;Temp;Humidity;BMP_temperature;BMP_pressure;BME280_temperature;BME280_humidity;BME280_pressure;Samples;Min_cycle;Max_cycle;Signal;HPM_P1;HPM_P2
2021/03/25 00:02:45;;;;;;;47.97;24.90;;;23.20;33.10;;;;;;6101551;28;83999;-65
2021/03/25 00:05:46;;;;;;;47.03;26.02;;;23.10;32.50;;;;;;6098116;28;83127;-66
2021/03/25 00:08:47;;;;;;;48.72;25.35;;;23.20;32.30;;;;;;6101788;28;83384;-65
2021/03/25 00:11:47;;;;;;;43.17;23.90;;;23.20;32.40;;;;;;6101468;28;85452;-66
2021/03/25 00:14:48;;;;;;;42.55;23.40;;;23.20;32.50;;;;;;6098230;28;83285;-65
2021/03/25 00:17:48;;;;;;;41.78;23.60;;;23.10;32.40;;;;;;6102240;28;83036;-65
2021/03/25 00:20:49;;;;;;;40.88;23.08;;;23.20;32.90;;;;;;6095587;28;83962;-65
2021/03/25 00:23:49;;;;;;;46.90;22.90;;;23.10;32.50;;;;;;6101298;28;84187;-65
2021/03/25 00:26:50;;;;;;;38.58;21.58;;;23.20;32.70;;;;;;6090321;28;83957;-65
2021/03/25 00:29:50;;;;;;;44.90;23.40;;;23.10;32.80;;;;;;6087003;28;84523;-65
2021/03/25 00:32:51;;;;;;;42.35;22.25;;;23.10;32.70;;;;;;6102367;28;83982;-65
2021/03/25 00:35:52;;;;;;;37.67;21.27;;;23.10;33.10;;;;;;6089715;28;83902;-65
2021/03/25 00:38:52;;;;;;;40.65;22.13;;;23.10;32.90;;;;;;6101804;28;83396;-66
2021/03/25 00:41:53;;;;;;;37.78;20.90;;;23.10;32.70;;;;;;6100999;28;85331;-66
2021/03/25 00:44:53;;;;;;;34.00;19.70;;;23.10;33.00;;;;;;6102622;28;83232;-69
2021/03/25 00:47:54;;;;;;;39.05;20.52;;;23.00;33.00;;;;;;6077359;28;85822;-67
2021/03/25 00:50:55;;;;;;;36.92;20.50;;;23.00;32.70;;;;;;6100751;28;83293;-67
2021/03/25 00:53:55;;;;;;;38.38;21.73;;;23.00;32.90;;;;;;6100481;28;83079;-67
2021/03/25 00:56:56;;;;;;;37.45;20.05;;;23.00;32.70;;;;;;6101282;28;83390;-66
2021/03/25 00:59:56;;;;;;;40.90;21.02;;;23.00;32.60;;;;;;6100033;28;84244;-64
2021/03/25 01:02:57;;;;;;;39.58;22.17;;;23.00;32.70;;;;;;6098336;28;85241;-65
2021/03/25 01:05:58;;;;;;;38.78;21.35;;;23.00;32.60;;;;;;6083589;28;83116;-66
2021/03/25 01:08:59;;;;;;;36.85;19.75;;;23.10;32.80;;;;;;6101985;28;85254;-65
2021/03/25 01:12:00;;;;;;;39.17;21.15;;;23.10;33.30;;;;;;6079127;28;85892;-64
2021/03/25 01:15:00;;;;;;;44.63;21.33;;;23.00;32.30;;;;;;6101677;28;86181;-64
2021/03/25 01:18:01;;;;;;;40.28;22.08;;;23.00;32.70;;;;;;6074386;28;86129;-64
2021/03/25 01:21:03;;;;;;;38.25;21.02;;;23.00;32.70;;;;;;6077725;28;86388;-64
2021/03/25 01:24:04;;;;;;;39.22;21.02;;;23.00;32.20;;;;;;6103935;28;83289;-67
2021/03/25 01:27:06;;;;;;;39.80;21.58;;;23.00;32.70;;;;;;6103434;28;84704;-64
2021/03/25 01:30:06;;;;;;;38.50;20.95;;;23.00;32.30;;;;;;6101555;28;85370;-65
2021/03/25 01:33:08;;;;;;;44.83;22.40;;;23.10;32.50;;;;;;6103640;28;85115;-64
2021/03/25 01:36:09;;;;;;;41.95;22.23;;;23.10;32.40;;;;;;6107831;28;90613;-65
2021/03/25 01:39:09;;;;;;;40.80;21.17;;;23.00;32.50;;;;;;6105334;28;84304;-64
2021/03/25 01:42:11;;;;;;;40.15;21.33;;;23.10;32.30;;;;;;6103212;28;86114;-65
2021/03/25 01:45:12;;;;;;;41.58;21.33;;;23.10;32.40;;;;;;6105047;28;84068;-64
2021/03/25 01:48:13;;;;;;;41.30;22.08;;;23.00;32.20;;;;;;6104057;28;90000;-64
2021/03/25 01:51:14;;;;;;;41.83;21.10;;;23.00;32.30;;;;;;6082109;28;85310;-64
2021/03/25 01:54:15;;;;;;;43.30;22.17;;;23.00;32.10;;;;;;6102986;28;86021;-64
2021/03/25 01:57:17;;;;;;;43.88;21.20;;;23.00;32.10;;;;;;6075296;28;86107;-64
2021/03/25 02:00:19;;;;;;;41.17;21.42;;;23.00;31.80;;;;;;6098892;28;88448;-65
2021/03/25 02:03:19;;;;;;;40.58;21.92;;;23.00;32.10;;;;;;6102924;28;83603;-65
2021/03/25 02:06:22;;;;;;;41.90;21.98;;;23.00;32.40;;;;;;6067612;28;83590;-65
2021/03/25 02:09:23;;;;;;;42.92;22.42;;;23.00;32.30;;;;;;6086586;28;85819;-66
2021/03/25 02:12:32;;;;;;;42.22;22.77;;;23.00;32.70;;;;;;6084425;28;83525;-65
2021/03/25 02:15:34;;;;;;;38.70;20.75;;;23.00;32.10;;;;;;6081946;28;85834;-66
2021/03/25 02:18:35;;;;;;;38.83;20.42;;;22.90;32.20;;;;;;6102961;28;85347;-66
2021/03/25 02:21:42;;;;;;;39.58;22.15;;;22.90;31.80;;;;;;6101362;28;85680;-66
2021/03/25 02:24:44;;;;;;;46.28;24.10;;;23.00;32.50;;;;;;6086504;28;83617;-66
2021/03/25 02:27:50;;;;;;;39.63;22.13;;;23.00;32.20;;;;;;6105090;28;85151;-66
2021/03/25 02:30:51;;;;;;;42.30;21.65;;;22.90;32.60;;;;;;6103229;28;84042;-66
2021/03/25 02:33:52;;;;;;;38.70;22.73;;;22.90;32.60;;;;;;6093564;28;86105;-66
2021/03/25 02:36:54;;;;;;;41.30;23.02;;;22.90;32.50;;;;;;6102584;28;83258;-65
2021/03/25 02:39:57;;;;;;;42.08;22.63;;;22.90;32.40;;;;;;6101380;28;86037;-65
2021/03/25 02:43:20;;;;;;;44.53;22.00;;;22.90;31.90;;;;;;6087729;28;83305;-65
2021/03/25 02:46:21;;;;;;;45.50;23.05;;;22.90;32.70;;;;;;6086605;28;84422;-64
2021/03/25 02:49:26;;;;;;;40.25;22.52;;;22.90;32.10;;;;;;6095404;28;85844;-65
2021/03/25 02:52:30;;;;;;;43.30;22.77;;;22.90;32.50;;;;;;6080297;28;85700;-65
2021/03/25 02:55:33;;;;;;;41.55;23.00;;;22.90;32.30;;;;;;6101411;28;85993;-65
2021/03/25 02:58:41;;;;;;;50.08;25.02;;;22.90;32.70;;;;;;6101046;28;85781;-65
2021/03/25 03:01:42;;;;;;;43.90;22.80;;;22.90;32.10;;;;;;6083183;28;85432;-65
2021/03/25 03:04:43;;;;;;;42.97;23.17;;;22.90;31.90;;;;;;6091804;28;86635;-65
2021/03/25 03:07:44;;;;;;;44.63;24.83;;;22.90;32.10;;;;;;6081162;28;84225;-67
2021/03/25 03:10:57;;;;;;;52.00;25.27;;;22.90;32.20;;;;;;6071260;28;85626;-64
2021/03/25 03:13:57;;;;;;;45.47;23.58;;;22.90;32.00;;;;;;6095963;28;83557;-66
2021/03/25 03:16:58;;;;;;;45.50;24.77;;;22.90;32.50;;;;;;6085718;28;85878;-65
2021/03/25 03:19:59;;;;;;;44.28;24.77;;;22.90;31.90;;;;;;6102990;28;83382;-66
2021/03/25 03:23:00;;;;;;;47.60;25.45;;;22.90;32.70;;;;;;6100804;28;92376;-66
2021/03/25 03:26:03;;;;;;;47.13;24.60;;;22.90;32.10;;;;;;6083668;28;86041;-65
2021/03/25 03:29:04;;;;;;;48.95;25.52;;;22.90;32.50;;;;;;6086221;28;86200;-66
2021/03/25 03:32:06;;;;;;;46.33;23.92;;;22.90;32.30;;;;;;6070830;28;84234;-67
2021/03/25 03:35:20;;;;;;;46.30;25.00;;;22.90;32.40;;;;;;6099023;28;89668;-67
2021/03/25 03:38:21;;;;;;;49.90;25.33;;;22.90;32.50;;;;;;6083017;28;86161;-67
2021/03/25 03:41:37;;;;;;;49.80;27.40;;;22.90;32.30;;;;;;6104101;28;85736;-66
2021/03/25 03:44:38;;;;;;;48.88;27.23;;;22.90;32.90;;;;;;6091549;28;84242;-66
2021/03/25 03:47:41;;;;;;;52.13;27.13;;;22.90;32.30;;;;;;6079314;28;84052;-66
2021/03/25 03:50:42;;;;;;;52.15;26.48;;;22.90;32.10;;;;;;6097425;28;84632;-66
2021/03/25 03:53:42;;;;;;;55.38;25.40;;;22.90;32.10;;;;;;6065912;28;85820;-65
2021/03/25 03:56:50;;;;;;;51.20;26.48;;;22.90;32.60;;;;;;6100738;28;85072;-67
2021/03/25 03:59:52;;;;;;;48.55;26.67;;;22.90;32.40;;;;;;6083783;28;84108;-66
2021/03/25 04:02:53;;;;;;;52.05;27.23;;;22.90;32.40;;;;;;6088718;28;85009;-67
2021/03/25 04:06:19;;;;;;;58.75;27.02;;;22.90;32.50;;;;;;6084881;28;83035;-68
2021/03/25 04:09:32;;;;;;;49.25;26.77;;;22.90;32.70;;;;;;6081866;28;85937;-66
2021/03/25 04:12:43;;;;;;;49.83;26.52;;;22.90;32.50;;;;;;6076974;28;86112;-67
2021/03/25 04:15:49;;;;;;;47.13;25.42;;;22.90;32.80;;;;;;6097431;28;86035;-66
2021/03/25 04:18:50;;;;;;;49.90;25.85;;;22.90;32.00;;;;;;6082918;28;85762;-66
2021/03/25 04:22:06;;;;;;;53.22;28.13;;;22.90;31.20;;;;;;6098121;28;86143;-67
2021/03/25 04:25:06;;;;;;;52.10;27.67;;;22.90;30.80;;;;;;6101103;28;83805;-66
2021/03/25 04:28:07;;;;;;;54.30;28.88;;;22.90;30.80;;;;;;6102320;28;83185;-66
2021/03/25 04:31:08;;;;;;;58.47;29.73;;;22.90;30.70;;;;;;6102447;28;85409;-66
2021/03/25 04:34:09;;;;;;;56.67;29.08;;;22.90;30.60;;;;;;6103654;28;83425;-66
2021/03/25 04:37:09;;;;;;;55.63;28.70;;;23.00;30.60;;;;;;6103230;28;83162;-66
2021/03/25 04:40:10;;;;;;;52.47;29.30;;;23.00;31.10;;;;;;6102885;28;83797;-67
2021/03/25 04:43:10;;;;;;;51.03;28.15;;;23.10;30.40;;;;;;6101713;28;83590;-67
2021/03/25 04:46:11;;;;;;;54.97;28.25;;;23.00;30.30;;;;;;6103890;28;84304;-66
2021/03/25 04:49:11;;;;;;;64.07;31.90;;;23.00;30.30;;;;;;6101837;28;83398;-66
2021/03/25 04:52:12;;;;;;;56.90;29.80;;;23.10;30.30;;;;;;6097799;28;85178;-66
2021/03/25 04:55:13;;;;;;;52.88;29.02;;;23.10;30.30;;;;;;6079256;28;85109;-67
2021/03/25 04:58:13;;;;;;;60.05;30.17;;;23.10;30.30;;;;;;6098390;28;83434;-67
2021/03/25 05:01:14;;;;;;;53.10;28.80;;;23.10;30.40;;;;;;6092152;28;83723;-66
2021/03/25 05:04:14;;;;;;;52.83;28.83;;;23.20;30.40;;;;;;6105694;28;83484;-66
2021/03/25 05:07:15;;;;;;;56.65;29.38;;;23.20;30.40;;;;;;6101814;28;83259;-66
2021/03/25 05:10:15;;;;;;;56.38;28.05;;;23.20;30.20;;;;;;6101560;28;83094;-67
2021/03/25 05:13:16;;;;;;;53.45;30.10;;;23.20;30.30;;;;;;6098913;28;83407;-66
2021/03/25 05:16:16;;;;;;;52.38;29.30;;;23.20;30.20;;;;;;6098528;28;84499;-65
2021/03/25 05:19:17;;;;;;;56.40;28.85;;;23.20;30.20;;;;;;6103298;28;83591;-69
2021/03/25 05:22:18;;;;;;;50.80;27.65;;;23.20;30.20;;;;;;6100608;28;86576;-69
2021/03/25 05:25:18;;;;;;;58.03;29.48;;;23.20;30.20;;;;;;6100509;28;83552;-69
2021/03/25 05:28:19;;;;;;;49.45;27.55;;;23.20;30.30;;;;;;6101223;28;84436;-69
2021/03/25 05:31:19;;;;;;;53.45;27.23;;;23.30;30.30;;;;;;6100962;28;83415;-69
2021/03/25 05:34:20;;;;;;;47.33;24.35;;;23.30;30.30;;;;;;6100873;28;84891;-67
2021/03/25 05:37:20;;;;;;;41.08;20.83;;;23.30;31.30;;;;;;6097494;28;83957;-68
2021/03/25 05:40:21;;;;;;;34.05;18.27;;;23.20;32.00;;;;;;6097950;28;83691;-69
2021/03/25 05:43:21;;;;;;;30.15;16.42;;;23.20;32.50;;;;;;6099681;28;84372;-68
2021/03/25 05:46:22;;;;;;;24.90;13.95;;;23.20;32.90;;;;;;6092941;28;86018;-67
2021/03/25 05:49:22;;;;;;;25.95;12.95;;;23.10;33.00;;;;;;6099373;28;86853;-69
2021/03/25 05:52:23;;;;;;;24.02;13.07;;;23.10;33.50;;;;;;6100829;28;83900;-66
2021/03/25 05:55:24;;;;;;;22.17;11.90;;;23.10;33.50;;;;;;6092330;28;84015;-68
2021/03/25 05:58:24;;;;;;;19.92;11.10;;;23.10;34.00;;;;;;6100025;28;83351;-67
2021/03/25 06:01:25;;;;;;;18.92;10.85;;;23.10;34.10;;;;;;6101562;28;84317;-66
2021/03/25 06:04:25;;;;;;;18.63;10.27;;;23.10;34.10;;;;;;6104713;28;83078;-67
2021/03/25 06:07:26;;;;;;;19.40;11.13;;;23.10;34.10;;;;;;6103999;28;83152;-67
2021/03/25 06:10:26;;;;;;;17.63;10.60;;;23.10;34.40;;;;;;6103545;28;83380;-67
2021/03/25 06:13:27;;;;;;;18.65;9.30;;;23.10;34.60;;;;;;6104279;28;84206;-67
2021/03/25 06:16:27;;;;;;;18.17;9.77;;;23.10;34.90;;;;;;6107582;28;83145;-66
2021/03/25 06:19:28;;;;;;;16.08;10.10;;;23.10;35.20;;;;;;6106798;28;81011;-67
2021/03/25 06:22:29;;;;;;;17.38;9.85;;;23.10;35.50;;;;;;6104121;28;83240;-68
2021/03/25 06:25:29;;;;;;;16.88;9.27;;;23.10;35.80;;;;;;6087864;28;83241;-67
2021/03/25 06:28:30;;;;;;;18.38;9.32;;;23.10;35.80;;;;;;6104262;28;80974;-66
2021/03/25 06:31:31;;;;;;;19.08;9.60;;;23.10;35.90;;;;;;6103124;28;80521;-66
2021/03/25 06:34:31;;;;;;;15.50;8.80;;;23.10;36.10;;;;;;6106913;28;80908;-64
2021/03/25 06:37:32;;;;;;;13.55;7.55;;;23.10;36.00;;;;;;6107706;28;80511;-67
2021/03/25 06:40:32;;;;;;;14.45;8.25;;;23.20;36.20;;;;;;6107319;28;80793;-67
2021/03/25 06:43:33;;;;;;;17.23;8.27;;;23.20;36.30;;;;;;6107438;28;81332;-67
2021/03/25 06:46:33;;;;;;;19.15;8.68;;;23.10;36.70;;;;;;6107197;28;82876;-68
2021/03/25 06:49:34;;;;;;;19.00;8.38;;;23.10;36.90;;;;;;6106817;28;80607;-66
2021/03/25 06:52:34;;;;;;;12.77;7.28;;;23.10;37.10;;;;;;6101024;28;82484;-68
2021/03/25 06:55:35;;;;;;;12.68;7.60;;;23.10;37.10;;;;;;6107489;28;81464;-68
2021/03/25 06:58:36;;;;;;;11.93;7.45;;;23.20;36.80;;;;;;6104665;28;81224;-67
2021/03/25 07:01:36;;;;;;;11.25;6.88;;;23.20;36.80;;;;;;6100400;28;80629;-66
2021/03/25 07:04:37;;;;;;;9.15;6.00;;;23.20;36.50;;;;;;6090965;28;81164;-67
2021/03/25 07:07:37;;;;;;;9.90;5.90;;;23.10;36.00;;;;;;6106221;28;80488;-67
2021/03/25 07:10:38;;;;;;;11.27;6.68;;;23.10;35.80;;;;;;6104995;28;83187;-67
2021/03/25 07:13:38;;;;;;;9.57;5.65;;;23.10;36.30;;;;;;6083012;28;81115;-67
2021/03/25 07:16:39;;;;;;;10.55;6.18;;;23.10;36.30;;;;;;6107664;28;81623;-68
2021/03/25 07:19:39;;;;;;;10.20;5.95;;;23.10;36.10;;;;;;6082480;28;81427;-68
2021/03/25 07:22:40;;;;;;;11.40;5.88;;;23.10;35.80;;;;;;6090062;28;82458;-62
2021/03/25 07:25:41;;;;;;;12.73;5.93;;;23.20;36.00;;;;;;6104535;28;80953;-66
2021/03/25 07:28:41;;;;;;;8.73;4.60;;;23.20;35.10;;;;;;6105949;28;80844;-63
2021/03/25 07:31:42;;;;;;;7.55;4.72;;;23.20;35.20;;;;;;6096219;28;80689;-63
2021/03/25 07:34:42;;;;;;;8.02;4.70;;;23.20;34.70;;;;;;6077877;28;83876;-63
2021/03/25 07:37:43;;;;;;;6.53;4.35;;;23.20;34.40;;;;;;6105394;28;81613;-63
2021/03/25 07:40:44;;;;;;;7.45;4.47;;;23.20;34.30;;;;;;6102101;28;80833;-63
2021/03/25 07:43:44;;;;;;;6.82;4.35;;;23.20;34.10;;;;;;6103171;28;82545;-62
2021/03/25 07:46:46;;;;;;;6.05;3.55;;;23.20;33.90;;;;;;6064003;28;83786;-63
2021/03/25 07:49:46;;;;;;;6.75;3.60;;;23.20;34.00;;;;;;6101660;28;81571;-63
2021/03/25 07:52:47;;;;;;;4.43;3.50;;;23.20;33.70;;;;;;6100754;28;81416;-63
2021/03/25 07:55:47;;;;;;;6.93;3.53;;;23.20;33.80;;;;;;6103839;28;81253;-63
2021/03/25 07:58:48;;;;;;;5.80;3.55;;;23.20;33.60;;;;;;6100388;28;81261;-63
2021/03/25 08:01:49;;;;;;;5.78;3.47;;;23.10;33.50;;;;;;6103624;28;81224;-61
2021/03/25 08:04:49;;;;;;;6.43;3.25;;;23.20;33.80;;;;;;6103298;28;80197;-62
2021/03/25 08:07:50;;;;;;;8.40;4.32;;;23.10;33.70;;;;;;6102243;28;80500;-61
2021/03/25 08:10:50;;;;;;;4.63;2.97;;;23.10;33.60;;;;;;6102519;28;81407;-61
2021/03/25 08:13:51;;;;;;;4.05;2.90;;;23.10;33.70;;;;;;6100569;28;81492;-62
2021/03/25 08:16:51;;;;;;;5.57;3.28;;;23.10;33.70;;;;;;6104959;28;80502;-63
2021/03/25 08:19:52;;;;;;;4.85;3.10;;;23.10;33.80;;;;;;6087142;28;85348;-62
2021/03/25 08:22:52;;;;;;;11.18;6.32;;;23.10;34.00;;;;;;6098572;28;83036;-69
2021/03/25 08:25:53;;;;;;;13.48;6.88;;;23.10;40.70;;;;;;6068820;28;81831;-68
2021/03/25 08:28:53;;;;;;;16.40;7.68;;;23.20;41.40;;;;;;6097281;28;82386;-69
2021/03/25 08:31:54;;;;;;;197.43;68.28;;;23.10;40.10;;;;;;6082265;28;81462;-71
2021/03/25 08:34:55;;;;;;;438.33;138.95;;;23.10;39.90;;;;;;6084312;28;83424;-68
2021/03/25 08:37:55;;;;;;;626.63;216.70;;;23.10;39.60;;;;;;6074659;28;85653;-69
2021/03/25 08:40:56;;;;;;;740.80;278.23;;;23.10;39.60;;;;;;6095093;28;86308;-67
2021/03/25 08:43:56;;;;;;;849.40;327.00;;;23.10;39.60;;;;;;6093309;28;85972;-69
2021/03/25 08:46:57;;;;;;;717.72;276.90;;;23.10;39.10;;;;;;6091590;28;91078;-66
2021/03/25 08:49:58;;;;;;;589.50;210.45;;;23.10;38.80;;;;;;6093742;28;86447;-67
2021/03/25 08:52:58;;;;;;;502.50;160.57;;;23.10;38.40;;;;;;6096973;28;86038;-67
2021/03/25 08:55:59;;;;;;;388.90;127.70;;;23.20;38.10;;;;;;6093306;28;85756;-67
2021/03/25 08:58:59;;;;;;;312.92;104.00;;;23.20;37.70;;;;;;6095051;28;85973;-66
2021/03/25 09:02:00;;;;;;;219.48;77.07;;;23.20;37.50;;;;;;6089628;28;86546;-68
2021/03/25 09:05:01;;;;;;;197.35;64.68;;;23.10;37.30;;;;;;6098189;28;85283;-68
2021/03/25 09:08:01;;;;;;;135.05;51.63;;;23.20;37.60;;;;;;6099695;28;83132;-68
2021/03/25 09:11:02;;;;;;;118.68;42.15;;;23.10;36.40;;;;;;6078219;28;85433;-69
2021/03/25 09:14:02;;;;;;;100.15;33.83;;;23.10;35.80;;;;;;6096655;28;84047;-67
2021/03/25 09:17:03;;;;;;;74.82;27.75;;;23.10;35.60;;;;;;6088940;28;83624;-67
2021/03/25 09:20:04;;;;;;;57.42;22.90;;;23.10;35.40;;;;;;6098279;28;83350;-68
2021/03/25 09:23:05;;;;;;;66.20;20.95;;;23.10;35.40;;;;;;6091307;28;83145;-68
2021/03/25 09:26:05;;;;;;;43.97;17.58;;;23.10;35.10;;;;;;6098511;28;82910;-68
2021/03/25 09:29:06;;;;;;;35.97;15.70;;;23.10;35.10;;;;;;6099519;28;83370;-67
2021/03/25 09:32:07;;;;;;;32.72;13.57;;;23.20;35.20;;;;;;6098889;28;85058;-68
2021/03/25 09:35:07;;;;;;;40.83;13.90;;;23.20;35.30;;;;;;6100461;28;83637;-68
2021/03/25 09:38:08;;;;;;;28.13;11.38;;;23.20;35.40;;;;;;6100829;28;84520;-69
2021/03/25 09:41:09;;;;;;;24.73;10.10;;;23.20;35.50;;;;;;6100799;28;83454;-69
2021/03/25 09:44:15;;;;;;;18.88;9.52;;;23.20;35.60;;;;;;6098566;28;84650;-70
2021/03/25 09:47:15;;;;;;;;;;;23.20;35.70;;;;;;6102092;28;82903;-71
2021/03/25 09:50:16;;;;;;;16.30;7.40;;;23.20;35.70;;;;;;6114214;28;80272;-70
2021/03/25 09:53:17;;;;;;;19.88;8.55;;;23.20;35.70;;;;;;6105396;28;81401;-69
2021/03/25 09:56:17;;;;;;;13.35;7.38;;;23.20;35.70;;;;;;6099092;28;82132;-70
2021/03/25 09:59:18;;;;;;;14.32;7.63;;;23.10;35.60;;;;;;6089010;28;82755;-71
2021/03/25 10:02:18;;;;;;;13.48;6.85;;;23.10;35.40;;;;;;6107312;28;80401;-72
2021/03/25 10:05:19;;;;;;;16.42;7.57;;;23.10;35.40;;;;;;6101168;28;80679;-71
2021/03/25 10:08:19;;;;;;;12.88;6.93;;;23.10;35.30;;;;;;6105895;28;80467;-70
2021/03/25 10:11:20;;;;;;;12.65;5.90;;;23.10;35.30;;;;;;6107729;28;81128;-69
2021/03/25 10:14:20;;;;;;;14.70;6.13;;;23.10;35.60;;;;;;6108088;28;80869;-70
2021/03/25 10:17:21;;;;;;;10.80;4.82;;;23.10;35.50;;;;;;6108761;28;82543;-71
2021/03/25 10:20:21;;;;;;;8.70;5.65;;;23.10;35.80;;;;;;6104928;28;81111;-70
2021/03/25 10:23:22;;;;;;;13.25;5.80;;;23.20;36.50;;;;;;6105906;28;80593;-69
2021/03/25 10:26:22;;;;;;;10.00;5.50;;;23.20;35.90;;;;;;6105365;28;81890;-70
2021/03/25 10:29:23;;;;;;;11.98;5.55;;;23.20;36.30;;;;;;6093983;28;80731;-69
2021/03/25 10:32:24;;;;;;;8.63;5.03;;;23.20;37.20;;;;;;6102216;28;80668;-66
2021/03/25 10:35:24;;;;;;;9.05;5.45;;;23.30;37.70;;;;;;6106132;28;80442;-68
2021/03/25 10:38:25;;;;;;;10.23;4.82;;;23.30;38.30;;;;;;6103549;28;81335;-71
2021/03/25 10:41:25;;;;;;;9.32;5.53;;;23.30;38.40;;;;;;6102539;28;80591;-69
2021/03/25 10:44:26;;;;;;;16.92;7.55;;;23.30;40.50;;;;;;6108456;28;80926;-69
2021/03/25 10:47:30;;;;;;;12.77;5.45;;;23.40;42.70;;;;;;6104237;28;81924;-68
2021/03/25 10:50:31;;;;;;;13.52;7.05;;;23.40;40.40;;;;;;6099404;28;81715;-69
2021/03/25 10:53:31;;;;;;;12.35;6.40;;;23.40;43.00;;;;;;6108132;28;80851;-69
2021/03/25 10:56:33;;;;;;;8.80;5.68;;;23.40;43.50;;;;;;6103111;28;83047;-70
2021/03/25 10:59:34;;;;;;;7.43;4.50;;;23.40;41.90;;;;;;6103483;28;81654;-69
2021/03/25 11:02:34;;;;;;;7.38;3.90;;;23.30;41.30;;;;;;6099829;28;80968;-71
2021/03/25 11:05:36;;;;;;;7.60;4.18;;;23.30;41.10;;;;;;6104017;28;80507;-70
2021/03/25 11:08:36;;;;;;;8.45;3.45;;;23.30;40.80;;;;;;6102546;28;80655;-69
2021/03/25 11:11:37;;;;;;;5.85;3.50;;;23.30;40.60;;;;;;6098140;28;81230;-71
2021/03/25 11:14:40;;;;;;;5.97;3.70;;;23.30;39.70;;;;;;6099605;28;80358;-69
2021/03/25 11:17:42;;;;;;;5.35;4.05;;;23.30;40.30;;;;;;6108224;28;80816;-69
2021/03/25 11:20:43;;;;;;;4.63;3.38;;;23.30;40.40;;;;;;6105517;28;81053;-69
2021/03/25 11:23:43;;;;;;;6.25;3.92;;;23.30;40.40;;;;;;6106528;28;80318;-70
2021/03/25 11:26:44;;;;;;;6.97;3.80;;;23.20;40.30;;;;;;6105858;28;81521;-69
2021/03/25 11:29:45;;;;;;;6.30;4.05;;;23.30;40.20;;;;;;6108337;28;81580;-71
2021/03/25 11:32:45;;;;;;;4.80;3.38;;;23.30;40.10;;;;;;6104383;28;80701;-68
2021/03/25 11:35:46;;;;;;;4.80;3.45;;;23.30;40.00;;;;;;6104846;28;81380;-71
2021/03/25 11:38:46;;;;;;;4.85;3.55;;;23.30;39.90;;;;;;6104440;28;81281;-68
2021/03/25 11:41:47;;;;;;;5.20;3.20;;;23.30;39.60;;;;;;6105691;28;81673;-67
2021/03/25 11:44:47;;;;;;;6.07;3.80;;;23.30;39.50;;;;;;6103771;28;80762;-67
2021/03/25 11:47:48;;;;;;;7.75;4.22;;;23.30;39.20;;;;;;6097960;28;86073;-70
2021/03/25 11:50:48;;;;;;;5.88;4.63;;;23.40;39.60;;;;;;6090028;28;80336;-68
2021/03/25 11:53:49;;;;;;;15.52;4.95;;;23.40;39.20;;;;;;6100987;28;81488;-69
2021/03/25 11:56:49;;;;;;;13.82;7.28;;;23.50;38.90;;;;;;6106686;28;81413;-66
2021/03/25 11:59:50;;;;;;;11.20;6.40;;;23.50;39.50;;;;;;6104301;28;81508;-68
2021/03/25 12:02:52;;;;;;;10.00;6.25;;;23.50;38.60;;;;;;6104995;28;80830;-68
2021/03/25 12:05:53;;;;;;;9.13;5.90;;;23.50;37.90;;;;;;6102453;28;81092;-67
2021/03/25 12:08:53;;;;;;;10.52;6.10;;;23.50;38.60;;;;;;6083661;28;80774;-68
2021/03/25 12:11:54;;;;;;;10.88;6.93;;;23.50;37.30;;;;;;6085611;28;83234;-67
2021/03/25 12:14:54;;;;;;;10.48;6.10;;;23.50;38.00;;;;;;6104796;28;80627;-68
2021/03/25 12:17:55;;;;;;;11.75;7.60;;;23.60;37.20;;;;;;6103189;28;81532;-69
2021/03/25 12:20:56;;;;;;;12.00;7.72;;;23.50;36.80;;;;;;6102494;28;81496;-69
2021/03/25 12:23:56;;;;;;;9.85;7.20;;;23.60;36.60;;;;;;6104542;28;81556;-68
2021/03/25 12:26:57;;;;;;;13.00;7.68;;;23.60;36.80;;;;;;6102061;28;80898;-69
2021/03/25 12:29:58;;;;;;;14.70;7.43;;;23.60;37.00;;;;;;6103772;28;81261;-69
2021/03/25 12:33:00;;;;;;;11.27;7.28;;;23.60;36.60;;;;;;6104889;28;80667;-69
2021/03/25 12:36:00;;;;;;;11.23;8.13;;;23.60;36.20;;;;;;6103660;28;81556;-68
2021/03/25 12:39:01;;;;;;;11.38;7.60;;;23.60;36.40;;;;;;6096519;28;80884;-70
2021/03/25 12:42:02;;;;;;;13.18;8.05;;;23.60;35.80;;;;;;6107983;28;80738;-69
2021/03/25 12:45:03;;;;;;;12.15;7.90;;;23.60;35.40;;;;;;6104431;28;81008;-69
2021/03/25 12:48:04;;;;;;;13.10;8.43;;;23.60;35.50;;;;;;6103657;28;80468;-70
2021/03/25 12:51:04;;;;;;;10.15;7.25;;;23.60;35.40;;;;;;6104291;28;80570;-69
2021/03/25 12:54:05;;;;;;;12.73;8.70;;;23.60;35.50;;;;;;6105698;28;80227;-70
2021/03/25 12:57:07;;;;;;;13.82;7.53;;;23.60;35.60;;;;;;6110159;28;80750;-69
2021/03/25 13:00:08;;;;;;;14.63;8.38;;;23.60;35.40;;;;;;6102361;28;83689;-71
2021/03/25 13:03:09;;;;;;;14.70;7.63;;;23.60;35.10;;;;;;6111273;28;81111;-69
2021/03/25 13:06:09;;;;;;;14.25;7.95;;;23.60;34.90;;;;;;6103194;28;81002;-68
2021/03/25 13:09:10;;;;;;;10.95;7.80;;;23.60;34.60;;;;;;6103590;28;80640;-68
2021/03/25 13:12:10;;;;;;;11.57;8.68;;;23.70;34.80;;;;;;6085077;28;82616;-70
2021/03/25 13:15:11;;;;;;;15.55;8.40;;;23.70;34.80;;;;;;6106849;28;80925;-71
2021/03/25 13:18:12;;;;;;;12.48;8.25;;;23.70;34.70;;;;;;6104402;28;81448;-69
2021/03/25 13:21:13;;;;;;;11.60;7.47;;;23.70;35.00;;;;;;6098936;28;82799;-69
2021/03/25 13:24:13;;;;;;;12.07;8.13;;;23.80;35.00;;;;;;6090336;28;84474;-68
2021/03/25 13:27:14;;;;;;;11.88;8.32;;;23.80;35.10;;;;;;6106556;28;87164;-70
2021/03/25 13:30:14;;;;;;;12.30;8.73;;;23.80;35.00;;;;;;6104057;28;80539;-68
2021/03/25 13:33:15;;;;;;;13.13;8.43;;;23.80;34.60;;;;;;6069599;28;81807;-69
2021/03/25 13:36:15;;;;;;;15.75;9.82;;;23.80;35.00;;;;;;6091157;28;80544;-67
2021/03/25 13:39:16;;;;;;;14.60;9.70;;;23.80;35.20;;;;;;6109369;28;80875;-67
2021/03/25 13:42:17;;;;;;;18.02;9.95;;;23.80;35.30;;;;;;6097715;28;81269;-68
2021/03/25 13:45:18;;;;;;;15.43;10.32;;;23.80;35.20;;;;;;6107393;28;80768;-68
2021/03/25 13:48:19;;;;;;;12.73;9.38;;;23.80;35.10;;;;;;6101875;28;83386;-69
2021/03/25 13:51:20;;;;;;;16.23;9.65;;;23.80;34.90;;;;;;6103482;28;81744;-68
2021/03/25 13:54:20;;;;;;;15.60;10.32;;;23.90;35.10;;;;;;6102760;28;81270;-68
2021/03/25 13:57:21;;;;;;;15.10;10.05;;;23.90;34.90;;;;;;6100140;28;83652;-68
2021/03/25 14:00:22;;;;;;;15.57;10.00;;;23.90;34.60;;;;;;6099795;28;83037;-68
2021/03/25 14:03:22;;;;;;;14.05;9.93;;;23.90;35.00;;;;;;6095857;28;86282;-69
2021/03/25 14:06:23;;;;;;;15.95;10.35;;;23.90;35.90;;;;;;6108343;28;83368;-69
2021/03/25 14:09:23;;;;;;;15.57;9.80;;;23.90;35.90;;;;;;6099431;28;83382;-71
2021/03/25 14:12:24;;;;;;;14.95;9.73;;;23.90;35.90;;;;;;6089576;28;83319;-70
2021/03/25 14:15:25;;;;;;;16.58;9.70;;;23.90;35.90;;;;;;6106461;28;81029;-68
2021/03/25 14:18:25;;;;;;;12.30;9.23;;;23.90;36.00;;;;;;6107258;28;80859;-69
2021/03/25 14:21:26;;;;;;;13.80;9.73;;;24.00;36.50;;;;;;6104387;28;80955;-71
2021/03/25 14:24:26;;;;;;;18.52;10.07;;;24.00;36.30;;;;;;6105289;28;80983;-70
2021/03/25 14:27:27;;;;;;;11.80;8.63;;;23.90;36.30;;;;;;6103882;28;83183;-69
2021/03/25 14:30:28;;;;;;;13.40;9.45;;;23.90;36.40;;;;;;6106871;28;84133;-70
2021/03/25 14:33:28;;;;;;;14.68;9.18;;;24.00;36.80;;;;;;6100178;28;81878;-68
2021/03/25 14:36:29;;;;;;;13.82;8.95;;;24.00;36.60;;;;;;6099870;28;81348;-69
2021/03/25 14:39:29;;;;;;;14.63;10.27;;;23.90;36.20;;;;;;6100790;28;81009;-67
2021/03/25 14:42:30;;;;;;;15.38;10.30;;;23.90;36.00;;;;;;6101600;28;83280;-67
2021/03/25 14:45:30;;;;;;;15.80;10.73;;;23.90;36.40;;;;;;6085211;28;82948;-67
2021/03/25 14:48:31;;;;;;;15.57;10.30;;;24.00;36.20;;;;;;6099736;28;86899;-66
2021/03/25 14:51:31;;;;;;;15.30;9.95;;;23.90;36.50;;;;;;6103438;28;84672;-67
2021/03/25 14:54:32;;;;;;;14.40;10.15;;;23.90;37.00;;;;;;6100903;28;83615;-67
2021/03/25 14:57:33;;;;;;;13.25;10.05;;;23.90;36.80;;;;;;6092899;28;84010;-65
2021/03/25 15:00:41;;;;;;;14.02;10.68;;;23.90;36.40;;;;;;6101429;28;88324;-66
2021/03/25 15:03:41;;;;;;;15.52;10.55;;;23.90;36.30;;;;;;6101225;28;82990;-67
2021/03/25 15:06:42;;;;;;;13.00;10.60;;;23.90;36.80;;;;;;6093878;28;83411;-67
2021/03/25 15:09:42;;;;;;;17.23;11.35;;;23.90;35.90;;;;;;6094207;28;86228;-68
2021/03/25 15:12:43;;;;;;;20.05;11.20;;;23.80;36.20;;;;;;6103119;28;84289;-67
2021/03/25 15:15:44;;;;;;;16.60;11.93;;;23.80;35.80;;;;;;6078609;28;84822;-66
2021/03/25 15:18:44;;;;;;;18.77;11.95;;;23.80;35.60;;;;;;6101026;28;83834;-66
2021/03/25 15:21:45;;;;;;;15.23;10.88;;;23.80;35.40;;;;;;6103774;28;84134;-68
2021/03/25 15:24:45;;;;;;;15.45;11.90;;;23.90;35.20;;;;;;6099440;28;83233;-67
2021/03/25 15:27:46;;;;;;;16.10;12.30;;;23.80;34.70;;;;;;6088322;28;86802;-67